Time;durP1;ratioP1;P1;durP2;ratioP2;P2;SDS_P1;SDS_P2;PMS_P1;PMS_P2;Temp;Humidity;BMP_temperature;BMP_pressure;BME280_temperature;BME280_humidity;BME280_pressure;Samples;Min_cycle;Max_cycle;Signal;HPM_P1;HPM_P2
2021/12/08 00:00:58;;;;;;;40.90;26.17;;;0.60;1.00;;;;;;4994665;28;20282;-82
2021/12/08 00:03:30;;;;;;;41.00;25.17;;;0.50;1.00;;;;;;4997866;28;20232;-82
2021/12/08 00:05:58;;;;;;;38.03;25.67;;;0.50;1.00;;;;;;4997052;28;20220;-80
2021/12/08 00:08:27;;;;;;;42.45;26.45;;;0.50;1.00;;;;;;4996334;28;20319;-81
2021/12/08 00:13:45;;;;;;;37.90;25.08;;;0.60;1.00;;;;;;4948679;28;20255;-79
2021/12/08 00:16:13;;;;;;;37.85;24.92;;;0.50;1.00;;;;;;4995799;28;20235;-82
2021/12/08 00:18:46;;;;;;;41.95;26.77;;;0.50;1.00;;;;;;4990096;28;20220;-79
2021/12/08 00:21:14;;;;;;;42.20;26.02;;;0.50;1.00;;;;;;4990497;28;20250;-80
2021/12/08 00:23:42;;;;;;;40.25;27.52;;;0.50;1.00;;;;;;4999093;28;20231;-80
2021/12/08 00:26:10;;;;;;;41.45;26.73;;;0.40;1.00;;;;;;5006166;28;20228;-80
2021/12/08 00:28:37;;;;;;;42.55;26.30;;;0.40;1.00;;;;;;5002337;28;20236;-81
2021/12/08 00:31:06;;;;;;;46.20;24.83;;;0.40;1.00;;;;;;4994709;28;20312;-78
2021/12/08 00:33:34;;;;;;;41.15;26.70;;;0.40;1.00;;;;;;4988813;28;20227;-80
2021/12/08 00:36:06;;;;;;;40.03;26.58;;;0.40;1.00;;;;;;4991650;28;20241;-81
2021/12/08 00:38:33;;;;;;;39.83;26.33;;;0.40;1.00;;;;;;4991168;28;20255;-79
2021/12/08 00:41:00;;;;;;;41.35;26.27;;;0.40;1.00;;;;;;4991626;28;20235;-83
2021/12/08 00:43:27;;;;;;;40.13;26.42;;;0.40;1.00;;;;;;4995189;28;22748;-82
2021/12/08 00:45:55;;;;;;;38.10;25.42;;;0.40;1.00;;;;;;4992777;28;20236;-79
2021/12/08 00:48:23;;;;;;;41.03;27.05;;;0.40;1.00;;;;;;4992560;28;20235;-80
2021/12/08 00:50:51;;;;;;;38.72;24.83;;;0.40;1.00;;;;;;4992267;28;20259;-80
2021/12/08 00:53:19;;;;;;;43.55;27.38;;;0.40;1.00;;;;;;5010006;28;20236;-80
2021/12/08 00:55:46;;;;;;;36.50;26.05;;;0.40;1.00;;;;;;4990307;28;20281;-83
2021/12/08 00:58:13;;;;;;;37.90;24.88;;;0.50;1.00;;;;;;4993275;28;20272;-79
2021/12/08 01:00:43;;;;;;;40.88;26.20;;;0.50;1.00;;;;;;4990027;28;20255;-81
2021/12/08 01:03:13;;;;;;;36.88;25.77;;;0.50;1.00;;;;;;4992232;28;20227;-80
2021/12/08 01:05:44;;;;;;;37.47;24.83;;;0.50;1.00;;;;;;4988269;28;20227;-80
2021/12/08 01:08:11;;;;;;;38.80;24.60;;;0.50;1.00;;;;;;4984527;28;21261;-80
2021/12/08 01:10:42;;;;;;;38.85;25.13;;;0.40;1.00;;;;;;4985091;28;20818;-81
2021/12/08 01:13:11;;;;;;;35.78;25.27;;;0.50;1.00;;;;;;4986689;28;20294;-82
2021/12/08 01:15:41;;;;;;;39.72;26.02;;;0.50;1.00;;;;;;4984883;28;21121;-82
2021/12/08 01:18:08;;;;;;;41.65;26.15;;;0.50;1.00;;;;;;4984014;28;20220;-81
2021/12/08 01:20:35;;;;;;;44.42;26.10;;;0.50;1.00;;;;;;4986527;28;20467;-81
2021/12/08 01:23:03;;;;;;;39.10;24.40;;;0.50;1.00;;;;;;4989750;28;20219;-79
2021/12/08 01:25:30;;;;;;;40.08;26.75;;;0.50;1.00;;;;;;4985645;28;20235;-80
2021/12/08 01:27:59;;;;;;;41.33;25.77;;;0.50;1.00;;;;;;5005800;28;20226;-78
2021/12/08 01:30:26;;;;;;;41.03;27.00;;;0.40;1.00;;;;;;4989916;28;20235;-79
2021/12/08 01:32:53;;;;;;;35.85;23.35;;;0.40;1.00;;;;;;4984088;28;20286;-78
2021/12/08 01:35:21;;;;;;;40.15;25.88;;;0.30;1.00;;;;;;4979143;28;20227;-79
2021/12/08 01:37:48;;;;;;;38.83;26.23;;;0.30;1.00;;;;;;4986082;28;20227;-80
2021/12/08 01:40:16;;;;;;;41.88;25.20;;;0.40;1.00;;;;;;4982365;28;20235;-79
2021/12/08 01:42:47;;;;;;;46.55;26.60;;;0.40;1.00;;;;;;4988480;28;20440;-82
2021/12/08 01:48:03;;;;;;;37.38;25.15;;;0.40;1.00;;;;;;4995504;28;20219;-80
2021/12/08 01:50:30;;;;;;;36.47;24.45;;;0.40;1.00;;;;;;4986083;28;20250;-81
2021/12/08 01:52:57;;;;;;;42.90;26.05;;;0.30;1.00;;;;;;4987213;28;20227;-83
2021/12/08 01:55:24;;;;;;;44.20;27.35;;;0.30;1.00;;;;;;4982374;28;20368;-82
2021/12/08 01:57:51;;;;;;;37.35;25.67;;;0.40;1.00;;;;;;4989478;28;20223;-81
2021/12/08 02:00:23;;;;;;;40.83;24.58;;;0.40;1.00;;;;;;4984250;28;20231;-81
2021/12/08 02:02:50;;;;;;;43.53;26.90;;;0.40;1.00;;;;;;4992274;28;20228;-81
2021/12/08 02:05:17;;;;;;;37.28;24.13;;;0.40;1.00;;;;;;4989963;28;20228;-80
2021/12/08 02:07:55;;;;;;;40.65;25.95;;;0.40;1.00;;;;;;4995236;28;20271;-82
2021/12/08 02:10:26;;;;;;;33.70;23.63;;;0.40;1.00;;;;;;5007258;28;20275;-80
2021/12/08 02:12:54;;;;;;;43.50;26.40;;;0.30;1.00;;;;;;5013904;28;20215;-80
2021/12/08 02:15:22;;;;;;;35.03;24.00;;;0.40;1.00;;;;;;5013826;28;20231;-80
2021/12/08 02:17:52;;;;;;;38.78;23.05;;;0.30;1.00;;;;;;5015882;28;20231;-78
2021/12/08 02:20:21;;;;;;;41.92;24.52;;;0.30;1.00;;;;;;5012982;28;20251;-81
2021/12/08 02:22:49;;;;;;;33.30;22.20;;;0.30;1.00;;;;;;5010060;28;20206;-80
2021/12/08 02:25:19;;;;;;;34.80;22.83;;;0.30;1.00;;;;;;5011231;28;20268;-80
2021/12/08 02:27:47;;;;;;;32.72;22.00;;;0.30;1.00;;;;;;5023481;28;20240;-78
2021/12/08 02:30:22;;;;;;;38.50;22.88;;;0.30;1.00;;;;;;5017324;28;21602;-78
2021/12/08 02:46:46;;;;;;;33.00;22.17;;;0.20;1.00;;;;;;5002183;28;20384;-79
2021/12/08 02:49:16;;;;;;;35.67;23.10;;;0.20;1.00;;;;;;5001522;28;20224;-80
2021/12/08 02:51:44;;;;;;;29.52;22.40;;;0.20;1.00;;;;;;4984972;28;20216;-81
2021/12/08 02:54:12;;;;;;;34.83;20.85;;;0.20;1.00;;;;;;4993943;28;20223;-80
2021/12/08 02:56:39;;;;;;;31.95;21.70;;;0.20;1.00;;;;;;4996694;28;20228;-78
2021/12/08 02:59:07;;;;;;;34.33;21.95;;;0.10;1.00;;;;;;5001244;28;20291;-80
2021/12/08 03:01:34;;;;;;;30.17;21.17;;;0.10;1.00;;;;;;4992562;28;20235;-79
2021/12/08 03:04:01;;;;;;;29.73;20.42;;;0.10;1.00;;;;;;4991851;28;20224;-80
2021/12/08 03:06:29;;;;;;;38.35;22.08;;;0.10;1.00;;;;;;4991997;28;20244;-79
2021/12/08 03:08:55;;;;;;;33.22;20.80;;;0.10;1.00;;;;;;4993130;28;20224;-79
2021/12/08 03:11:26;;;;;;;32.47;21.73;;;0.20;1.00;;;;;;4994949;28;20227;-81
2021/12/08 03:14:04;;;;;;;30.75;21.83;;;0.10;1.00;;;;;;4994279;28;20212;-79
2021/12/08 03:16:32;;;;;;;35.00;22.38;;;0.20;1.00;;;;;;4994768;28;20227;-79
2021/12/08 03:18:59;;;;;;;35.85;22.35;;;0.20;1.00;;;;;;5010922;28;20324;-79
2021/12/08 03:21:30;;;;;;;39.13;24.17;;;0.20;1.00;;;;;;5002474;28;20231;-79
2021/12/08 03:24:10;;;;;;;37.45;22.77;;;0.20;1.00;;;;;;5005085;28;20223;-79
2021/12/08 03:26:47;;;;;;;33.58;22.75;;;0.20;1.00;;;;;;5007929;28;20216;-82
2021/12/08 03:29:26;;;;;;;31.20;22.08;;;0.20;1.00;;;;;;5003279;28;20270;-82
2021/12/08 03:32:02;;;;;;;32.00;21.15;;;0.10;1.00;;;;;;5004813;28;20244;-80
2021/12/08 03:34:31;;;;;;;34.63;22.10;;;0.10;1.00;;;;;;5002772;28;20215;-79
2021/12/08 03:36:58;;;;;;;36.70;23.17;;;0.20;1.00;;;;;;5006705;28;20255;-80
2021/12/08 03:39:25;;;;;;;36.65;22.20;;;0.20;1.00;;;;;;5003998;28;20320;-79
2021/12/08 03:41:54;;;;;;;33.92;23.23;;;0.20;1.00;;;;;;4996766;28;20231;-78
2021/12/08 03:44:20;;;;;;;36.08;24.15;;;0.20;1.00;;;;;;4999517;28;20269;-81
2021/12/08 03:46:48;;;;;;;39.83;23.75;;;0.20;1.00;;;;;;4987737;28;20311;-83
2021/12/08 03:49:18;;;;;;;34.55;22.85;;;0.20;1.00;;;;;;4986577;28;20231;-80
2021/12/08 03:51:45;;;;;;;36.58;22.35;;;0.20;1.00;;;;;;4981525;28;20239;-80
2021/12/08 03:54:13;;;;;;;37.17;23.15;;;0.30;1.00;;;;;;4982675;28;20295;-80
2021/12/08 03:56:41;;;;;;;37.85;23.63;;;0.30;1.00;;;;;;4983823;28;20228;-83
2021/12/08 03:59:11;;;;;;;35.42;22.20;;;0.20;1.00;;;;;;4996174;28;20235;-81
2021/12/08 04:01:38;;;;;;;37.13;22.17;;;0.20;1.00;;;;;;5004124;28;20382;-80
2021/12/08 04:04:08;;;;;;;34.22;23.13;;;0.30;1.00;;;;;;4995967;28;20714;-79
2021/12/08 04:06:44;;;;;;;36.60;24.98;;;0.20;1.00;;;;;;4989086;28;20232;-80
2021/12/08 04:09:18;;;;;;;35.50;24.30;;;0.20;1.00;;;;;;4984642;28;20290;-81
2021/12/08 04:11:46;;;;;;;39.30;24.45;;;0.30;1.00;;;;;;4984502;28;20226;-81
2021/12/08 04:14:18;;;;;;;36.17;23.58;;;0.20;1.00;;;;;;4985477;28;21016;-83
2021/12/08 04:16:50;;;;;;;38.67;24.75;;;0.20;1.00;;;;;;4985184;28;20223;-81
2021/12/08 04:19:19;;;;;;;31.73;23.83;;;0.20;1.00;;;;;;4983610;28;20248;-79
2021/12/08 04:21:47;;;;;;;37.63;24.83;;;0.20;1.00;;;;;;4995982;28;20240;-81
2021/12/08 04:24:17;;;;;;;36.38;24.75;;;0.20;1.00;;;;;;4997465;28;20227;-81
2021/12/08 04:26:49;;;;;;;34.35;22.88;;;0.20;1.00;;;;;;4999613;28;20220;-79
2021/12/08 04:29:20;;;;;;;42.38;26.33;;;0.20;1.00;;;;;;4999885;28;20247;-81
2021/12/08 04:31:51;;;;;;;39.78;23.60;;;0.20;1.00;;;;;;5003789;28;20223;-80
2021/12/08 04:34:25;;;;;;;38.47;24.08;;;0.20;1.00;;;;;;5000105;28;20224;-81
2021/12/08 04:36:54;;;;;;;39.65;25.05;;;0.20;1.00;;;;;;5004710;28;20248;-80
2021/12/08 04:39:27;;;;;;;39.28;25.30;;;0.20;1.00;;;;;;5004188;28;20238;-80
2021/12/08 04:42:01;;;;;;;38.60;26.48;;;0.20;1.00;;;;;;5005355;28;20234;-79
2021/12/08 04:44:36;;;;;;;39.47;25.13;;;0.30;1.00;;;;;;4999186;28;20231;-81
2021/12/08 04:50:23;;;;;;;35.80;24.63;;;0.30;1.00;;;;;;4990987;28;20239;-79
2021/12/08 04:53:01;;;;;;;38.28;24.70;;;0.30;1.00;;;;;;4992470;28;20226;-79
2021/12/08 05:04:13;;;;;;;38.80;23.13;;;0.30;1.00;;;;;;4999848;28;20252;-80
2021/12/08 05:06:48;;;;;;;44.30;29.48;;;0.30;1.00;;;;;;4993667;28;20224;-80
2021/12/08 05:09:19;;;;;;;38.17;26.08;;;0.30;1.00;;;;;;4982423;28;20238;-80
2021/12/08 05:11:56;;;;;;;38.75;26.63;;;0.30;1.00;;;;;;4984581;28;20227;-80
2021/12/08 05:14:25;;;;;;;44.05;28.92;;;0.40;1.00;;;;;;4984448;28;20238;-81
2021/12/08 05:16:57;;;;;;;36.58;25.45;;;0.30;1.00;;;;;;4983294;28;20227;-82
2021/12/08 05:19:28;;;;;;;38.38;24.88;;;0.30;1.00;;;;;;4978145;28;20306;-81
2021/12/08 05:21:59;;;;;;;36.15;24.85;;;0.30;1.00;;;;;;4983883;28;20228;-80
2021/12/08 05:24:32;;;;;;;37.88;22.85;;;0.30;1.00;;;;;;4985380;28;20714;-82
2021/12/08 05:27:04;;;;;;;35.58;22.85;;;0.30;1.00;;;;;;4982591;28;20287;-80
2021/12/08 05:29:36;;;;;;;34.55;24.38;;;0.30;1.00;;;;;;4986606;28;20224;-80
2021/12/08 05:32:06;;;;;;;35.97;24.90;;;0.30;1.00;;;;;;4999719;28;20997;-80
2021/12/08 05:34:35;;;;;;;35.00;23.33;;;0.30;1.00;;;;;;4979617;28;20235;-79
2021/12/08 05:37:04;;;;;;;35.00;23.70;;;0.30;1.00;;;;;;4983199;28;20282;-78
2021/12/08 05:39:32;;;;;;;40.40;24.83;;;0.30;1.00;;;;;;4984142;28;20223;-80
2021/12/08 05:42:02;;;;;;;34.47;24.20;;;0.30;1.00;;;;;;4978320;28;20240;-78
2021/12/08 05:44:29;;;;;;;35.30;24.23;;;0.10;1.00;;;;;;4979915;28;20220;-78
2021/12/08 05:46:59;;;;;;;30.08;22.05;;;0.10;1.00;;;;;;4980612;28;20223;-78
2021/12/08 05:49:27;;;;;;;36.30;23.92;;;0.00;1.00;;;;;;4981164;28;20230;-80
2021/12/08 05:51:57;;;;;;;36.70;23.77;;;0.00;1.00;;;;;;4980988;28;20235;-81
2021/12/08 05:54:29;;;;;;;38.22;23.55;;;0.00;1.00;;;;;;4985861;28;20758;-79
2021/12/08 05:56:56;;;;;;;38.20;24.90;;;0.00;1.00;;;;;;4984351;28;20235;-83
2021/12/08 05:59:26;;;;;;;34.10;21.77;;;0.00;1.00;;;;;;4979602;28;20235;-80
2021/12/08 06:01:56;;;;;;;41.63;26.38;;;0.00;1.00;;;;;;4995382;28;20242;-80
2021/12/08 06:04:25;;;;;;;32.80;22.73;;;0.00;1.00;;;;;;4997894;28;20231;-81
2021/12/08 06:06:57;;;;;;;39.40;25.95;;;0.10;1.00;;;;;;4981771;28;20231;-80
2021/12/08 06:09:26;;;;;;;37.85;25.20;;;0.10;1.00;;;;;;4978521;28;20236;-80
2021/12/08 06:11:55;;;;;;;38.72;26.02;;;0.10;1.00;;;;;;4986580;28;20227;-79
2021/12/08 06:14:25;;;;;;;35.42;25.23;;;0.10;1.00;;;;;;4981261;28;20235;-78
2021/12/08 06:16:56;;;;;;;40.08;25.55;;;0.00;1.00;;;;;;4995693;28;20414;-80
2021/12/08 06:19:23;;;;;;;34.17;22.55;;;0.00;1.00;;;;;;4982067;28;21136;-80
2021/12/08 06:21:51;;;;;;;35.25;24.35;;;-0.10;1.00;;;;;;4985949;28;20251;-80
2021/12/08 06:24:21;;;;;;;38.25;24.85;;;-0.10;1.00;;;;;;4980718;28;20281;-82
2021/12/08 06:26:49;;;;;;;41.60;25.55;;;0.00;1.00;;;;;;4977532;28;21526;-81
2021/12/08 06:29:18;;;;;;;47.60;27.05;;;0.00;1.00;;;;;;4983816;28;20227;-82
2021/12/08 06:31:47;;;;;;;39.78;26.00;;;0.00;1.00;;;;;;4984432;28;20247;-82
2021/12/08 06:34:14;;;;;;;43.25;26.35;;;0.00;1.00;;;;;;4977834;28;20765;-83
2021/12/08 06:36:46;;;;;;;37.38;25.60;;;0.00;1.00;;;;;;4984079;28;20255;-81
2021/12/08 06:39:21;;;;;;;42.38;26.23;;;0.00;1.00;;;;;;4989450;28;20200;-81
2021/12/08 06:41:53;;;;;;;39.75;25.10;;;0.00;1.00;;;;;;5007869;28;20242;-80
2021/12/08 06:44:24;;;;;;;40.72;25.65;;;0.00;1.00;;;;;;4985868;28;21073;-81
2021/12/08 06:46:54;;;;;;;40.58;25.60;;;0.00;1.00;;;;;;4988193;28;20232;-81
2021/12/08 06:49:22;;;;;;;41.85;25.40;;;0.00;1.00;;;;;;4986537;28;20294;-82
2021/12/08 06:51:54;;;;;;;36.30;24.13;;;0.00;1.00;;;;;;4989029;28;20222;-82
2021/12/08 06:54:27;;;;;;;40.67;24.55;;;0.10;1.00;;;;;;5000733;28;20295;-82
2021/12/08 06:57:00;;;;;;;46.38;26.65;;;0.20;1.00;;;;;;4980020;28;21000;-78
2021/12/08 06:59:54;;;;;;;38.85;25.52;;;0.30;1.00;;;;;;4984551;28;20302;-81
2021/12/08 07:02:51;;;;;;;47.63;31.08;;;0.30;1.00;;;;;;4981144;28;20239;-78
2021/12/08 07:05:29;;;;;;;44.08;28.45;;;0.30;1.00;;;;;;4990148;28;20252;-78
2021/12/08 07:08:05;;;;;;;43.75;25.75;;;0.30;1.00;;;;;;4999298;28;20224;-80
2021/12/08 07:10:38;;;;;;;39.22;26.20;;;0.30;1.00;;;;;;4978773;28;20241;-78
2021/12/08 07:13:09;;;;;;;35.83;24.35;;;0.30;1.00;;;;;;4980968;28;20232;-80
2021/12/08 07:15:40;;;;;;;44.42;26.02;;;0.30;1.00;;;;;;4980422;28;20228;-80
2021/12/08 07:18:12;;;;;;;36.70;24.45;;;0.20;1.00;;;;;;4983074;28;20225;-77
2021/12/08 07:20:47;;;;;;;45.50;27.40;;;0.10;1.00;;;;;;4978588;28;20220;-77
2021/12/08 07:23:19;;;;;;;44.45;25.85;;;0.20;1.00;;;;;;4981045;28;20326;-78
2021/12/08 07:25:48;;;;;;;41.85;26.40;;;0.10;1.00;;;;;;4975676;28;20215;-78
2021/12/08 07:28:17;;;;;;;40.38;26.63;;;0.20;1.00;;;;;;4982250;28;20324;-78
2021/12/08 07:30:50;;;;;;;43.35;25.48;;;0.20;1.00;;;;;;4983519;28;20228;-82
2021/12/08 07:33:17;;;;;;;42.00;24.48;;;0.20;1.00;;;;;;4982492;28;20234;-80
2021/12/08 07:35:47;;;;;;;43.28;26.05;;;0.20;1.00;;;;;;4984002;28;20235;-79
2021/12/08 07:38:18;;;;;;;38.50;25.13;;;0.30;1.00;;;;;;4979683;28;21291;-80
2021/12/08 07:40:52;;;;;;;47.40;28.52;;;0.20;1.00;;;;;;4987892;28;20224;-79
2021/12/08 07:43:23;;;;;;;44.80;25.40;;;0.30;1.00;;;;;;4993869;28;20273;-76
2021/12/08 07:46:02;;;;;;;44.83;26.45;;;0.30;1.00;;;;;;4994444;28;20251;-76
2021/12/08 07:48:35;;;;;;;45.00;27.92;;;0.30;1.00;;;;;;4994088;28;20228;-77
2021/12/08 07:51:06;;;;;;;45.42;26.85;;;0.40;1.00;;;;;;5003842;28;20211;-77
2021/12/08 07:53:35;;;;;;;51.08;28.83;;;0.40;1.00;;;;;;5002935;28;20287;-77
2021/12/08 07:56:05;;;;;;;43.72;26.45;;;0.50;1.00;;;;;;4993849;28;20275;-78
2021/12/08 07:58:41;;;;;;;48.10;27.52;;;0.50;1.00;;;;;;4996410;28;20330;-78
2021/12/08 08:01:11;;;;;;;53.40;26.70;;;0.50;1.00;;;;;;5010589;28;20331;-77
2021/12/08 08:03:40;;;;;;;43.58;26.83;;;0.50;1.00;;;;;;4997862;28;20284;-77
2021/12/08 08:06:10;;;;;;;45.80;27.98;;;0.50;1.00;;;;;;4993087;28;20227;-78
2021/12/08 08:08:37;;;;;;;43.00;28.08;;;0.60;1.00;;;;;;4996251;28;20227;-76
2021/12/08 08:11:10;;;;;;;50.13;28.95;;;0.60;1.00;;;;;;4995174;28;20255;-77
2021/12/08 08:13:38;;;;;;;43.35;28.15;;;0.60;1.00;;;;;;4993419;28;20231;-79
2021/12/08 08:16:08;;;;;;;44.78;25.67;;;0.70;1.00;;;;;;4991405;28;20232;-77
2021/12/08 08:18:37;;;;;;;44.08;26.73;;;0.70;1.00;;;;;;4988964;28;21580;-78
2021/12/08 08:21:08;;;;;;;39.42;25.77;;;0.70;1.00;;;;;;4989740;28;20234;-77
2021/12/08 08:23:36;;;;;;;46.22;29.00;;;0.70;1.00;;;;;;4985866;28;20235;-78
2021/12/08 08:26:07;;;;;;;43.20;26.52;;;0.80;1.00;;;;;;4986859;28;20236;-78
2021/12/08 08:28:35;;;;;;;48.88;28.42;;;0.80;1.00;;;;;;4980936;28;20238;-79
2021/12/08 08:31:06;;;;;;;43.38;26.73;;;0.90;1.00;;;;;;4980298;28;20228;-79
2021/12/08 08:33:35;;;;;;;43.90;26.42;;;0.90;1.00;;;;;;4978742;28;20354;-76
2021/12/08 08:36:07;;;;;;;43.65;27.00;;;0.90;1.00;;;;;;4980547;28;20236;-77
2021/12/08 08:38:38;;;;;;;44.45;26.17;;;0.90;1.00;;;;;;4974929;28;20235;-79
2021/12/08 08:41:09;;;;;;;41.35;25.55;;;1.00;1.00;;;;;;4980256;28;20760;-78
2021/12/08 08:43:36;;;;;;;42.03;26.15;;;1.00;1.00;;;;;;4976002;28;20345;-80
2021/12/08 08:46:08;;;;;;;45.58;25.92;;;1.00;1.00;;;;;;4973561;28;21106;-80
2021/12/08 08:48:40;;;;;;;41.35;25.23;;;0.90;1.00;;;;;;4975122;28;20224;-77
2021/12/08 08:51:13;;;;;;;42.50;26.98;;;0.90;1.00;;;;;;4978599;28;20231;-78
2021/12/08 08:53:42;;;;;;;42.17;26.00;;;1.00;1.00;;;;;;4974087;28;20222;-80
2021/12/08 08:56:14;;;;;;;44.17;24.77;;;1.00;1.00;;;;;;4970110;28;20231;-78
2021/12/08 08:58:46;;;;;;;44.47;25.65;;;1.00;1.00;;;;;;4977177;28;21168;-78
2021/12/08 09:01:16;;;;;;;41.08;26.45;;;1.00;1.00;;;;;;4981637;28;20275;-78
2021/12/08 09:03:48;;;;;;;37.38;24.60;;;0.90;1.00;;;;;;4976313;28;20486;-78
2021/12/08 09:06:18;;;;;;;42.90;26.15;;;0.90;1.00;;;;;;4979489;28;20230;-77
2021/12/08 09:08:45;;;;;;;48.92;27.60;;;0.90;1.00;;;;;;4983462;28;20227;-78
2021/12/08 09:11:17;;;;;;;47.45;27.60;;;0.90;1.00;;;;;;4980316;28;20352;-79
2021/12/08 09:13:49;;;;;;;43.85;25.92;;;0.90;1.00;;;;;;4970534;28;20679;-78
2021/12/08 09:16:21;;;;;;;43.58;26.20;;;0.90;1.00;;;;;;4981575;28;20243;-77
2021/12/08 09:18:56;;;;;;;37.65;26.48;;;0.90;1.00;;;;;;4979970;28;20644;-76
2021/12/08 09:21:27;;;;;;;47.25;27.35;;;1.00;1.00;;;;;;4976831;28;20227;-78
2021/12/08 09:24:01;;;;;;;38.80;24.90;;;1.00;1.00;;;;;;4982850;28;20274;-79
2021/12/08 09:26:31;;;;;;;47.42;28.30;;;1.00;1.00;;;;;;4983687;28;20234;-81
2021/12/08 09:29:03;;;;;;;48.15;26.63;;;1.10;1.00;;;;;;4977508;28;20246;-79
2021/12/08 09:31:37;;;;;;;46.05;27.35;;;1.10;1.00;;;;;;4977137;28;20319;-78
2021/12/08 09:34:08;;;;;;;42.35;27.42;;;1.10;1.00;;;;;;4974407;28;20228;-79
2021/12/08 09:36:39;;;;;;;42.70;26.92;;;1.10;1.00;;;;;;4978632;28;20226;-80
2021/12/08 09:39:11;;;;;;;43.80;26.60;;;1.20;1.00;;;;;;4977161;28;20227;-76
2021/12/08 09:41:46;;;;;;;42.78;25.58;;;1.20;1.00;;;;;;4988059;28;20228;-77
2021/12/08 09:44:16;;;;;;;44.15;26.45;;;1.20;1.00;;;;;;4988984;28;20238;-83
2021/12/08 09:46:46;;;;;;;47.30;28.83;;;1.20;1.00;;;;;;4977688;28;20223;-78
2021/12/08 09:49:15;;;;;;;44.30;26.13;;;1.30;1.00;;;;;;4981316;28;20223;-78
2021/12/08 09:51:43;;;;;;;39.17;26.70;;;1.40;1.00;;;;;;4990268;28;20230;-76
2021/12/08 09:54:10;;;;;;;48.80;27.67;;;1.50;1.00;;;;;;4983041;28;20262;-77
2021/12/08 09:56:40;;;;;;;50.60;28.17;;;1.40;1.00;;;;;;4981804;28;20224;-80
2021/12/08 09:59:09;;;;;;;48.13;27.55;;;1.30;1.00;;;;;;4993764;28;20255;-78
2021/12/08 10:01:38;;;;;;;42.85;26.83;;;1.30;1.00;;;;;;4997592;28;20224;-76
2021/12/08 10:04:05;;;;;;;42.33;27.88;;;1.40;1.00;;;;;;4990533;28;20227;-78
2021/12/08 10:06:33;;;;;;;39.92;25.70;;;1.50;1.00;;;;;;4995536;28;20254;-78
2021/12/08 10:09:00;;;;;;;42.08;26.02;;;1.50;1.00;;;;;;4989563;28;20236;-77
2021/12/08 10:11:30;;;;;;;45.95;29.55;;;1.50;1.00;;;;;;4998627;28;20235;-78
2021/12/08 10:13:58;;;;;;;47.05;28.83;;;1.40;1.00;;;;;;4995513;28;20694;-79
2021/12/08 10:16:26;;;;;;;46.47;30.08;;;1.50;1.00;;;;;;4995822;28;20255;-74
2021/12/08 10:18:55;;;;;;;52.55;29.70;;;1.50;1.00;;;;;;4992912;28;20223;-75
2021/12/08 10:21:22;;;;;;;40.63;26.35;;;1.70;1.00;;;;;;4993683;28;20294;-80
2021/12/08 10:23:50;;;;;;;44.35;28.25;;;1.80;1.00;;;;;;4992444;28;20231;-74
2021/12/08 10:26:22;;;;;;;42.03;26.85;;;1.80;1.00;;;;;;4988307;28;20305;-75
2021/12/08 10:28:51;;;;;;;43.83;26.23;;;1.80;1.00;;;;;;4986614;28;20286;-75
2021/12/08 10:31:26;;;;;;;48.03;27.88;;;1.90;1.00;;;;;;4980431;28;20331;-77
2021/12/08 10:36:46;;;;;;;41.85;27.02;;;2.10;1.00;;;;;;4975848;28;21051;-75
2021/12/08 10:39:16;;;;;;;46.90;28.48;;;2.10;1.00;;;;;;4970039;28;20699;-75
2021/12/08 10:42:09;;;;;;;42.28;27.30;;;2.00;1.00;;;;;;4982216;28;21215;-77
2021/12/08 10:44:47;;;;;;;42.90;27.00;;;2.00;1.00;;;;;;4976537;28;20251;-77
2021/12/08 10:47:19;;;;;;;39.20;25.75;;;2.00;1.00;;;;;;4981172;28;20235;-74
2021/12/08 10:55:24;;;;;;;44.58;29.65;;;2.30;1.00;;;;;;4981846;28;20236;-76
2021/12/08 10:57:54;;;;;;;44.88;26.30;;;2.20;1.00;;;;;;4984408;28;20235;-78
2021/12/08 11:00:25;;;;;;;37.17;25.67;;;2.30;1.00;;;;;;4979648;28;20220;-76
2021/12/08 11:02:54;;;;;;;40.17;25.05;;;2.30;1.00;;;;;;4977270;28;20235;-77
2021/12/08 11:05:41;;;;;;;39.45;24.00;;;2.50;1.00;;;;;;4976236;28;20310;-77
2021/12/08 11:08:18;;;;;;;42.75;26.50;;;2.70;1.00;;;;;;4981826;28;20255;-75
2021/12/08 11:10:49;;;;;;;43.22;26.73;;;2.80;1.00;;;;;;4977838;28;20223;-76
2021/12/08 11:13:20;;;;;;;43.85;26.70;;;2.80;1.00;;;;;;4978603;28;20219;-75
2021/12/08 11:15:49;;;;;;;39.55;25.05;;;2.60;1.00;;;;;;4977460;28;20315;-75
2021/12/08 11:18:23;;;;;;;41.72;25.95;;;2.50;1.00;;;;;;4977898;28;20958;-75
2021/12/08 11:20:53;;;;;;;42.55;26.83;;;2.40;1.00;;;;;;4975970;28;20231;-76
2021/12/08 11:23:40;;;;;;;44.75;28.08;;;2.40;1.00;;;;;;4977636;28;21114;-79
2021/12/08 11:26:13;;;;;;;42.67;27.65;;;2.40;1.00;;;;;;4982952;28;20753;-76
2021/12/08 11:28:40;;;;;;;38.45;24.90;;;2.60;1.00;;;;;;4978332;28;20299;-75
2021/12/08 11:31:10;;;;;;;41.00;25.73;;;2.60;1.00;;;;;;4983917;28;20229;-76
2021/12/08 11:33:42;;;;;;;40.42;26.60;;;2.60;1.00;;;;;;4989282;28;20230;-78
2021/12/08 11:36:15;;;;;;;41.53;26.85;;;2.60;1.00;;;;;;5008504;28;20319;-77
2021/12/08 11:38:42;;;;;;;39.35;26.27;;;2.40;1.00;;;;;;5011718;28;20271;-78
2021/12/08 11:41:22;;;;;;;44.22;27.13;;;2.20;1.00;;;;;;5012218;28;20211;-76
2021/12/08 11:43:52;;;;;;;41.97;25.02;;;2.20;1.00;;;;;;5002893;28;20228;-76
2021/12/08 11:46:20;;;;;;;42.72;28.05;;;2.10;1.00;;;;;;5008129;28;20216;-79
2021/12/08 11:49:03;;;;;;;43.63;28.17;;;2.10;1.00;;;;;;5011352;28;20206;-80
2021/12/08 11:51:32;;;;;;;42.50;28.63;;;2.10;1.00;;;;;;5014390;28;20291;-79
2021/12/08 11:54:03;;;;;;;36.50;24.55;;;2.10;1.00;;;;;;5010082;28;20215;-77
2021/12/08 11:56:41;;;;;;;40.20;24.83;;;2.00;1.00;;;;;;5013058;28;21737;-78
2021/12/08 11:59:11;;;;;;;40.08;25.25;;;2.00;1.00;;;;;;5014211;28;20216;-79
2021/12/08 12:01:39;;;;;;;33.78;22.30;;;2.10;1.00;;;;;;5005111;28;20214;-76
2021/12/08 12:04:10;;;;;;;43.20;24.83;;;2.10;1.00;;;;;;5011671;28;20295;-76
2021/12/08 12:06:38;;;;;;;45.65;27.20;;;2.00;1.00;;;;;;5008295;28;20239;-75
2021/12/08 12:09:07;;;;;;;42.92;26.67;;;2.10;1.00;;;;;;5008060;28;20236;-74
2021/12/08 12:11:37;;;;;;;35.78;24.35;;;2.20;1.00;;;;;;5005513;28;20212;-76
2021/12/08 12:14:05;;;;;;;38.03;24.13;;;2.30;1.00;;;;;;5007004;28;21038;-76
2021/12/08 12:16:32;;;;;;;41.10;28.17;;;2.30;1.00;;;;;;5009230;28;20261;-76
2021/12/08 12:19:05;;;;;;;40.80;25.35;;;2.30;1.00;;;;;;5002671;28;20227;-75
2021/12/08 12:21:45;;;;;;;45.53;26.83;;;2.20;1.00;;;;;;5000192;28;20224;-81
2021/12/08 12:24:53;;;;;;;42.33;25.95;;;2.20;1.00;;;;;;4981067;28;20381;-81
2021/12/08 12:27:47;;;;;;;44.60;26.33;;;2.20;1.00;;;;;;4983359;28;20305;-82
2021/12/08 12:31:43;;;;;;;39.95;25.70;;;2.30;1.00;;;;;;4969855;28;20228;-81
2021/12/08 12:34:26;;;;;;;38.53;23.60;;;2.40;1.00;;;;;;4953587;28;20244;-80
2021/12/08 12:36:54;;;;;;;39.67;24.48;;;2.40;1.00;;;;;;4966319;28;21592;-80
2021/12/08 12:39:26;;;;;;;40.80;25.80;;;2.40;1.00;;;;;;4939590;28;20225;-80
2021/12/08 12:42:11;;;;;;;40.22;23.70;;;2.40;1.00;;;;;;4981077;28;20221;-81
2021/12/08 12:44:46;;;;;;;51.10;26.10;;;2.50;1.00;;;;;;4983287;28;21023;-81
2021/12/08 12:47:30;;;;;;;41.17;24.92;;;2.50;1.00;;;;;;4987348;28;20230;-80
2021/12/08 12:50:15;;;;;;;41.22;26.15;;;2.60;1.00;;;;;;4986234;28;20219;-80
2021/12/08 12:52:50;;;;;;;38.72;26.10;;;2.60;1.00;;;;;;4972429;28;20643;-80
2021/12/08 12:55:19;;;;;;;37.80;26.33;;;2.60;1.00;;;;;;4974769;28;20227;-81
2021/12/08 12:58:16;;;;;;;41.25;25.85;;;2.60;1.00;;;;;;4990922;28;20329;-78
2021/12/08 13:00:46;;;;;;;42.35;26.00;;;2.50;1.00;;;;;;4980198;28;20242;-79
2021/12/08 13:03:34;;;;;;;45.50;28.10;;;2.30;1.00;;;;;;4984763;28;20239;-78
2021/12/08 13:06:03;;;;;;;43.70;26.17;;;2.30;1.00;;;;;;4985404;28;20528;-76
2021/12/08 13:08:32;;;;;;;36.72;25.45;;;2.30;1.00;;;;;;5003231;28;20220;-74
2021/12/08 13:11:04;;;;;;;46.17;26.63;;;2.40;1.00;;;;;;5001840;28;20215;-79
2021/12/08 13:13:46;;;;;;;40.70;26.35;;;2.40;1.00;;;;;;5005515;28;20212;-76
2021/12/08 13:16:22;;;;;;;39.80;25.08;;;2.40;1.00;;;;;;5002213;28;20295;-75
2021/12/08 13:18:55;;;;;;;48.80;27.20;;;2.30;1.00;;;;;;5012851;28;20223;-76
2021/12/08 13:21:39;;;;;;;38.55;25.88;;;2.30;1.00;;;;;;4983110;28;20232;-77
2021/12/08 13:24:26;;;;;;;38.63;23.50;;;2.40;1.00;;;;;;4978298;28;20236;-76
2021/12/08 13:27:00;;;;;;;42.97;27.08;;;2.40;1.00;;;;;;4979089;28;21153;-80
2021/12/08 13:29:27;;;;;;;40.53;24.52;;;2.40;1.00;;;;;;4978638;28;20326;-80
2021/12/08 13:31:59;;;;;;;40.08;26.50;;;2.30;1.00;;;;;;4977672;28;20246;-76
2021/12/08 13:34:34;;;;;;;40.70;25.25;;;2.40;1.00;;;;;;4988927;28;20231;-76
2021/12/08 13:37:20;;;;;;;42.35;24.90;;;2.30;1.00;;;;;;4972889;28;20762;-75
2021/12/08 13:39:49;;;;;;;39.47;25.85;;;2.20;1.00;;;;;;4972780;28;20258;-77
2021/12/08 13:42:18;;;;;;;39.42;23.92;;;2.20;1.00;;;;;;4972427;28;20287;-77
2021/12/08 13:44:54;;;;;;;45.13;25.48;;;2.20;1.00;;;;;;4973442;28;20239;-77
2021/12/08 13:47:28;;;;;;;42.70;24.35;;;2.10;1.00;;;;;;4970609;28;20215;-79
2021/12/08 13:49:58;;;;;;;47.55;28.30;;;2.00;1.00;;;;;;4971349;28;20279;-79